北九州空港の過去48時間の天気

北九州空港 (Kitakyushu)

現在時刻: 7/5 11:46 JST (7/5 02:46 UTC) 以下の時間は現地時間です。

過去48時間のMETAR気象情報
時間 風向 風速(m/s) 視程 気温(℃) 湿度(%) 気圧(hPa) 天気現象
5 11:00 8 10km以上 26 89 1004 周辺でしゅう雨
5 10:09 7 10km以上 26 89 1003
5 10:00 7 10km以上 26 89 1003
5 09:00 6 10km以上 26 89 1003 弱いしゅう雨
5 08:00 5 10km以上 26 89 1004
5 07:00 4 10km以上 25 94 1003
5 06:00 4 10km以上 25 94 1004
5 05:00 7 10km以上 25 94 1003
RJFR 050200Z 09015KT 9999 VCSH FEW005 BKN008 BKN020 26/24 Q1004
RJFR 050109Z 09014KT 9999 FEW005 BKN008 BKN015 26/24 Q1003 RMK 1ST005 5ST008 6CU015 A2964
RJFR 050100Z 08014KT 9999 FEW005 BKN010 BKN020 26/24 Q1003
RJFR 050000Z 08011KT 9999 -SHRA FEW003 SCT010 BKN025 26/24 Q1003
RJFR 042300Z 09009KT 9999 FEW005 SCT025 BKN045 26/24 Q1004
RJFR 042200Z 08008KT 9999 FEW005 SCT015 BKN045 25/24 Q1003
RJFR 042100Z 09008KT 9999 FEW003 BKN050 BKN080 25/24 Q1004
RJFR 042000Z 10014KT 9999 FEW005 SCT020 BKN050 25/24 Q1003